sensor_id;sensor_type;location;lat;lon;timestamp;P1;durP1;ratioP1;P2;durP2;ratioP2
14316;SDS011;7242;50.858;6.586;2023-07-13T00:01:19;2.60;;;1.20;;
14316;SDS011;7242;50.858;6.586;2023-07-13T00:04:22;2.30;;;1.03;;
14316;SDS011;7242;50.858;6.586;2023-07-13T00:07:25;4.47;;;1.40;;
14316;SDS011;7242;50.858;6.586;2023-07-13T00:10:25;4.93;;;1.40;;
14316;SDS011;7242;50.858;6.586;2023-07-13T00:13:27;2.03;;;1.07;;
14316;SDS011;7242;50.858;6.586;2023-07-13T00:16:27;2.90;;;1.20;;
14316;SDS011;7242;50.858;6.586;2023-07-13T00:19:29;3.17;;;1.40;;
14316;SDS011;7242;50.858;6.586;2023-07-13T00:22:29;4.27;;;1.23;;
14316;SDS011;7242;50.858;6.586;2023-07-13T00:25:30;2.87;;;1.20;;
14316;SDS011;7242;50.858;6.586;2023-07-13T00:28:32;2.00;;;1.20;;
14316;SDS011;7242;50.858;6.586;2023-07-13T00:31:34;5.40;;;1.20;;
14316;SDS011;7242;50.858;6.586;2023-07-13T00:34:36;3.47;;;1.30;;
14316;SDS011;7242;50.858;6.586;2023-07-13T00:37:37;3.57;;;1.20;;
14316;SDS011;7242;50.858;6.586;2023-07-13T00:40:38;5.00;;;1.13;;
14316;SDS011;7242;50.858;6.586;2023-07-13T00:43:40;4.50;;;1.50;;
14316;SDS011;7242;50.858;6.586;2023-07-13T00:46:43;4.10;;;1.40;;
14316;SDS011;7242;50.858;6.586;2023-07-13T00:49:44;2.90;;;1.30;;
14316;SDS011;7242;50.858;6.586;2023-07-13T00:52:46;3.93;;;1.60;;
14316;SDS011;7242;50.858;6.586;2023-07-13T00:55:49;4.10;;;1.17;;
14316;SDS011;7242;50.858;6.586;2023-07-13T00:58:51;3.03;;;1.20;;
14316;SDS011;7242;50.858;6.586;2023-07-13T01:01:53;3.47;;;1.20;;
14316;SDS011;7242;50.858;6.586;2023-07-13T01:04:55;3.73;;;1.27;;
14316;SDS011;7242;50.858;6.586;2023-07-13T01:07:56;4.23;;;1.27;;
14316;SDS011;7242;50.858;6.586;2023-07-13T01:10:57;5.50;;;1.27;;
14316;SDS011;7242;50.858;6.586;2023-07-13T01:13:58;4.17;;;1.47;;
14316;SDS011;7242;50.858;6.586;2023-07-13T01:17:01;4.33;;;1.20;;
14316;SDS011;7242;50.858;6.586;2023-07-13T01:20:03;2.37;;;1.20;;
14316;SDS011;7242;50.858;6.586;2023-07-13T01:23:05;3.73;;;1.20;;
14316;SDS011;7242;50.858;6.586;2023-07-13T01:26:08;5.43;;;1.43;;
14316;SDS011;7242;50.858;6.586;2023-07-13T01:29:10;4.00;;;1.37;;
14316;SDS011;7242;50.858;6.586;2023-07-13T01:32:14;4.30;;;1.30;;
14316;SDS011;7242;50.858;6.586;2023-07-13T01:35:16;5.27;;;1.50;;
14316;SDS011;7242;50.858;6.586;2023-07-13T01:38:20;6.10;;;1.53;;
14316;SDS011;7242;50.858;6.586;2023-07-13T01:41:22;3.63;;;1.47;;
14316;SDS011;7242;50.858;6.586;2023-07-13T01:44:23;6.20;;;1.40;;
14316;SDS011;7242;50.858;6.586;2023-07-13T01:47:24;4.63;;;1.30;;
14316;SDS011;7242;50.858;6.586;2023-07-13T01:50:26;4.17;;;1.33;;
14316;SDS011;7242;50.858;6.586;2023-07-13T01:53:27;2.47;;;1.13;;
14316;SDS011;7242;50.858;6.586;2023-07-13T01:56:27;2.67;;;1.10;;
14316;SDS011;7242;50.858;6.586;2023-07-13T01:59:28;7.53;;;1.40;;
14316;SDS011;7242;50.858;6.586;2023-07-13T02:02:30;3.83;;;1.57;;
14316;SDS011;7242;50.858;6.586;2023-07-13T02:05:31;2.93;;;1.30;;
14316;SDS011;7242;50.858;6.586;2023-07-13T02:08:32;6.50;;;1.70;;
14316;SDS011;7242;50.858;6.586;2023-07-13T02:11:33;2.27;;;1.47;;
14316;SDS011;7242;50.858;6.586;2023-07-13T02:14:34;4.20;;;1.50;;
14316;SDS011;7242;50.858;6.586;2023-07-13T02:17:35;4.00;;;1.40;;
14316;SDS011;7242;50.858;6.586;2023-07-13T02:20:36;3.00;;;1.30;;
14316;SDS011;7242;50.858;6.586;2023-07-13T02:23:36;4.27;;;1.47;;
14316;SDS011;7242;50.858;6.586;2023-07-13T02:26:37;3.97;;;1.30;;
14316;SDS011;7242;50.858;6.586;2023-07-13T02:29:38;4.43;;;1.53;;
14316;SDS011;7242;50.858;6.586;2023-07-13T02:32:39;4.40;;;1.30;;
14316;SDS011;7242;50.858;6.586;2023-07-13T02:35:39;5.23;;;1.50;;
14316;SDS011;7242;50.858;6.586;2023-07-13T02:38:40;2.90;;;1.50;;
14316;SDS011;7242;50.858;6.586;2023-07-13T02:41:41;5.60;;;1.50;;
14316;SDS011;7242;50.858;6.586;2023-07-13T02:44:43;5.40;;;1.63;;
14316;SDS011;7242;50.858;6.586;2023-07-13T02:47:44;3.80;;;1.30;;
14316;SDS011;7242;50.858;6.586;2023-07-13T02:50:45;5.23;;;1.50;;
14316;SDS011;7242;50.858;6.586;2023-07-13T02:53:46;3.03;;;1.27;;
14316;SDS011;7242;50.858;6.586;2023-07-13T02:56:47;5.23;;;1.80;;
14316;SDS011;7242;50.858;6.586;2023-07-13T02:59:48;6.50;;;1.40;;
14316;SDS011;7242;50.858;6.586;2023-07-13T03:02:50;2.83;;;1.17;;
14316;SDS011;7242;50.858;6.586;2023-07-13T03:05:57;2.77;;;1.50;;
14316;SDS011;7242;50.858;6.586;2023-07-13T03:09:01;1.73;;;1.00;;
14316;SDS011;7242;50.858;6.586;2023-07-13T03:12:04;5.03;;;1.40;;
14316;SDS011;7242;50.858;6.586;2023-07-13T03:15:06;2.93;;;1.40;;
14316;SDS011;7242;50.858;6.586;2023-07-13T03:18:11;3.30;;;1.40;;
14316;SDS011;7242;50.858;6.586;2023-07-13T03:21:11;2.83;;;1.53;;
14316;SDS011;7242;50.858;6.586;2023-07-13T03:24:14;2.20;;;1.30;;
14316;SDS011;7242;50.858;6.586;2023-07-13T03:27:16;4.03;;;1.60;;
14316;SDS011;7242;50.858;6.586;2023-07-13T03:30:17;3.57;;;1.27;;
14316;SDS011;7242;50.858;6.586;2023-07-13T03:33:18;3.90;;;1.50;;
14316;SDS011;7242;50.858;6.586;2023-07-13T03:36:22;4.80;;;1.30;;
14316;SDS011;7242;50.858;6.586;2023-07-13T03:39:26;6.00;;;1.70;;
14316;SDS011;7242;50.858;6.586;2023-07-13T03:42:29;3.87;;;1.50;;
14316;SDS011;7242;50.858;6.586;2023-07-13T03:45:30;4.93;;;1.63;;
14316;SDS011;7242;50.858;6.586;2023-07-13T03:48:31;4.20;;;1.57;;
14316;SDS011;7242;50.858;6.586;2023-07-13T03:51:33;3.97;;;1.50;;
14316;SDS011;7242;50.858;6.586;2023-07-13T03:54:34;3.67;;;1.50;;
14316;SDS011;7242;50.858;6.586;2023-07-13T03:57:36;4.37;;;1.70;;
14316;SDS011;7242;50.858;6.586;2023-07-13T04:00:37;9.60;;;1.47;;
14316;SDS011;7242;50.858;6.586;2023-07-13T04:03:39;4.03;;;1.80;;
14316;SDS011;7242;50.858;6.586;2023-07-13T04:06:40;5.13;;;1.80;;
14316;SDS011;7242;50.858;6.586;2023-07-13T04:09:41;4.57;;;1.97;;
14316;SDS011;7242;50.858;6.586;2023-07-13T04:12:44;4.93;;;1.40;;
14316;SDS011;7242;50.858;6.586;2023-07-13T04:15:45;4.40;;;1.70;;
14316;SDS011;7242;50.858;6.586;2023-07-13T04:18:47;4.83;;;1.80;;
14316;SDS011;7242;50.858;6.586;2023-07-13T04:21:48;4.70;;;1.60;;
14316;SDS011;7242;50.858;6.586;2023-07-13T04:24:49;4.67;;;1.70;;
14316;SDS011;7242;50.858;6.586;2023-07-13T04:27:50;3.30;;;1.40;;
14316;SDS011;7242;50.858;6.586;2023-07-13T04:30:52;4.47;;;1.70;;
14316;SDS011;7242;50.858;6.586;2023-07-13T04:33:53;3.83;;;1.60;;
14316;SDS011;7242;50.858;6.586;2023-07-13T04:36:54;4.97;;;1.70;;
14316;SDS011;7242;50.858;6.586;2023-07-13T04:39:55;4.17;;;1.53;;
14316;SDS011;7242;50.858;6.586;2023-07-13T04:42:56;4.07;;;1.60;;
14316;SDS011;7242;50.858;6.586;2023-07-13T04:45:57;4.87;;;1.53;;
14316;SDS011;7242;50.858;6.586;2023-07-13T04:49:03;7.17;;;1.80;;
14316;SDS011;7242;50.858;6.586;2023-07-13T04:52:04;7.57;;;1.80;;
14316;SDS011;7242;50.858;6.586;2023-07-13T04:55:05;5.60;;;1.90;;
14316;SDS011;7242;50.858;6.586;2023-07-13T04:58:06;5.20;;;1.67;;
14316;SDS011;7242;50.858;6.586;2023-07-13T05:01:07;3.83;;;1.43;;
14316;SDS011;7242;50.858;6.586;2023-07-13T05:04:09;6.97;;;1.53;;
14316;SDS011;7242;50.858;6.586;2023-07-13T05:07:10;5.33;;;1.70;;
14316;SDS011;7242;50.858;6.586;2023-07-13T05:10:11;5.93;;;1.70;;
14316;SDS011;7242;50.858;6.586;2023-07-13T05:13:11;3.97;;;1.53;;
14316;SDS011;7242;50.858;6.586;2023-07-13T05:16:12;3.97;;;1.53;;
14316;SDS011;7242;50.858;6.586;2023-07-13T05:19:13;5.13;;;2.00;;
14316;SDS011;7242;50.858;6.586;2023-07-13T05:22:14;8.03;;;1.80;;
14316;SDS011;7242;50.858;6.586;2023-07-13T05:25:15;5.60;;;1.67;;
14316;SDS011;7242;50.858;6.586;2023-07-13T05:28:16;7.33;;;1.77;;
14316;SDS011;7242;50.858;6.586;2023-07-13T05:31:17;4.83;;;1.57;;
14316;SDS011;7242;50.858;6.586;2023-07-13T05:34:18;6.23;;;1.60;;
14316;SDS011;7242;50.858;6.586;2023-07-13T05:37:19;7.17;;;1.90;;
14316;SDS011;7242;50.858;6.586;2023-07-13T05:40:20;6.33;;;1.80;;
14316;SDS011;7242;50.858;6.586;2023-07-13T05:43:20;6.93;;;1.83;;
14316;SDS011;7242;50.858;6.586;2023-07-13T05:46:22;6.07;;;1.67;;
14316;SDS011;7242;50.858;6.586;2023-07-13T05:49:23;5.80;;;1.57;;
14316;SDS011;7242;50.858;6.586;2023-07-13T05:52:24;6.87;;;1.90;;
14316;SDS011;7242;50.858;6.586;2023-07-13T05:55:25;9.13;;;2.00;;
14316;SDS011;7242;50.858;6.586;2023-07-13T05:58:26;5.37;;;1.67;;
14316;SDS011;7242;50.858;6.586;2023-07-13T06:01:27;10.43;;;2.10;;
14316;SDS011;7242;50.858;6.586;2023-07-13T06:04:28;6.57;;;1.43;;
14316;SDS011;7242;50.858;6.586;2023-07-13T06:07:29;6.03;;;2.00;;
14316;SDS011;7242;50.858;6.586;2023-07-13T06:10:31;9.37;;;2.23;;
14316;SDS011;7242;50.858;6.586;2023-07-13T06:13:33;6.63;;;1.97;;
14316;SDS011;7242;50.858;6.586;2023-07-13T06:16:34;5.53;;;1.57;;
14316;SDS011;7242;50.858;6.586;2023-07-13T06:19:35;5.83;;;1.70;;
14316;SDS011;7242;50.858;6.586;2023-07-13T06:22:36;5.43;;;1.80;;
14316;SDS011;7242;50.858;6.586;2023-07-13T06:25:37;5.43;;;1.73;;
14316;SDS011;7242;50.858;6.586;2023-07-13T06:28:37;7.83;;;2.13;;
14316;SDS011;7242;50.858;6.586;2023-07-13T06:31:39;5.67;;;1.83;;
14316;SDS011;7242;50.858;6.586;2023-07-13T06:34:40;6.87;;;1.80;;
14316;SDS011;7242;50.858;6.586;2023-07-13T06:37:41;8.07;;;2.00;;
14316;SDS011;7242;50.858;6.586;2023-07-13T06:40:42;5.63;;;1.87;;
14316;SDS011;7242;50.858;6.586;2023-07-13T06:43:43;6.27;;;2.00;;
14316;SDS011;7242;50.858;6.586;2023-07-13T06:46:44;5.07;;;1.60;;
14316;SDS011;7242;50.858;6.586;2023-07-13T06:49:45;4.57;;;1.80;;
14316;SDS011;7242;50.858;6.586;2023-07-13T06:52:45;5.53;;;1.57;;
14316;SDS011;7242;50.858;6.586;2023-07-13T06:55:46;6.70;;;2.20;;
14316;SDS011;7242;50.858;6.586;2023-07-13T06:58:48;8.23;;;1.67;;
14316;SDS011;7242;50.858;6.586;2023-07-13T07:01:48;5.70;;;1.67;;
14316;SDS011;7242;50.858;6.586;2023-07-13T07:04:49;8.40;;;1.80;;
14316;SDS011;7242;50.858;6.586;2023-07-13T07:07:50;7.93;;;2.00;;
14316;SDS011;7242;50.858;6.586;2023-07-13T07:10:52;5.70;;;1.70;;
14316;SDS011;7242;50.858;6.586;2023-07-13T07:13:54;5.23;;;2.10;;
14316;SDS011;7242;50.858;6.586;2023-07-13T07:16:54;8.90;;;2.10;;
14316;SDS011;7242;50.858;6.586;2023-07-13T07:19:55;8.80;;;2.17;;
14316;SDS011;7242;50.858;6.586;2023-07-13T07:22:56;9.87;;;2.43;;
14316;SDS011;7242;50.858;6.586;2023-07-13T07:25:56;9.17;;;2.00;;
14316;SDS011;7242;50.858;6.586;2023-07-13T07:28:57;7.87;;;2.60;;
14316;SDS011;7242;50.858;6.586;2023-07-13T07:31:59;7.70;;;2.20;;
14316;SDS011;7242;50.858;6.586;2023-07-13T07:35:00;4.27;;;1.93;;
14316;SDS011;7242;50.858;6.586;2023-07-13T07:38:01;7.57;;;2.73;;
14316;SDS011;7242;50.858;6.586;2023-07-13T07:41:03;7.80;;;2.20;;
14316;SDS011;7242;50.858;6.586;2023-07-13T07:44:04;6.77;;;1.87;;
14316;SDS011;7242;50.858;6.586;2023-07-13T07:47:07;5.57;;;1.53;;
14316;SDS011;7242;50.858;6.586;2023-07-13T07:50:09;7.70;;;2.47;;
14316;SDS011;7242;50.858;6.586;2023-07-13T07:53:10;6.70;;;1.87;;
14316;SDS011;7242;50.858;6.586;2023-07-13T07:56:11;4.80;;;1.47;;
14316;SDS011;7242;50.858;6.586;2023-07-13T07:59:12;8.20;;;1.70;;
14316;SDS011;7242;50.858;6.586;2023-07-13T08:02:13;5.33;;;1.50;;
14316;SDS011;7242;50.858;6.586;2023-07-13T08:05:14;5.33;;;1.77;;
14316;SDS011;7242;50.858;6.586;2023-07-13T08:08:15;3.70;;;1.53;;
14316;SDS011;7242;50.858;6.586;2023-07-13T08:11:15;5.80;;;1.50;;
14316;SDS011;7242;50.858;6.586;2023-07-13T08:14:17;3.83;;;1.37;;
14316;SDS011;7242;50.858;6.586;2023-07-13T08:17:18;6.93;;;1.80;;
14316;SDS011;7242;50.858;6.586;2023-07-13T08:20:18;5.83;;;1.80;;
14316;SDS011;7242;50.858;6.586;2023-07-13T08:23:20;6.93;;;1.83;;
14316;SDS011;7242;50.858;6.586;2023-07-13T08:26:20;5.53;;;1.90;;
14316;SDS011;7242;50.858;6.586;2023-07-13T08:29:21;6.23;;;1.80;;
14316;SDS011;7242;50.858;6.586;2023-07-13T08:32:23;4.97;;;1.70;;
14316;SDS011;7242;50.858;6.586;2023-07-13T08:35:24;5.10;;;1.67;;
14316;SDS011;7242;50.858;6.586;2023-07-13T08:38:25;4.53;;;1.47;;
14316;SDS011;7242;50.858;6.586;2023-07-13T08:41:26;5.73;;;1.50;;
14316;SDS011;7242;50.858;6.586;2023-07-13T08:44:30;5.17;;;1.80;;
14316;SDS011;7242;50.858;6.586;2023-07-13T08:47:49;3.50;;;1.57;;
14316;SDS011;7242;50.858;6.586;2023-07-13T08:51:03;3.37;;;1.67;;
14316;SDS011;7242;50.858;6.586;2023-07-13T08:54:23;5.40;;;1.60;;
14316;SDS011;7242;50.858;6.586;2023-07-13T08:57:39;4.80;;;1.40;;
14316;SDS011;7242;50.858;6.586;2023-07-13T09:04:45;4.67;;;1.30;;
14316;SDS011;7242;50.858;6.586;2023-07-13T09:07:55;5.10;;;1.40;;
14316;SDS011;7242;50.858;6.586;2023-07-13T09:14:33;4.93;;;1.53;;
14316;SDS011;7242;50.858;6.586;2023-07-13T09:17:43;4.07;;;1.50;;
14316;SDS011;7242;50.858;6.586;2023-07-13T09:20:51;5.33;;;1.43;;
14316;SDS011;7242;50.858;6.586;2023-07-13T09:23:56;5.00;;;1.50;;
14316;SDS011;7242;50.858;6.586;2023-07-13T09:27:21;3.23;;;1.40;;
14316;SDS011;7242;50.858;6.586;2023-07-13T09:30:27;4.20;;;1.43;;
14316;SDS011;7242;50.858;6.586;2023-07-13T09:33:33;2.97;;;1.17;;
14316;SDS011;7242;50.858;6.586;2023-07-13T09:36:35;3.30;;;1.20;;
14316;SDS011;7242;50.858;6.586;2023-07-13T09:39:37;4.93;;;1.43;;
14316;SDS011;7242;50.858;6.586;2023-07-13T09:42:41;4.57;;;1.40;;
14316;SDS011;7242;50.858;6.586;2023-07-13T09:45:42;2.90;;;1.20;;
14316;SDS011;7242;50.858;6.586;2023-07-13T09:48:47;4.33;;;1.30;;
14316;SDS011;7242;50.858;6.586;2023-07-13T09:51:49;2.30;;;0.97;;
14316;SDS011;7242;50.858;6.586;2023-07-13T09:54:59;2.63;;;1.20;;
14316;SDS011;7242;50.858;6.586;2023-07-13T09:58:13;4.73;;;1.30;;
14316;SDS011;7242;50.858;6.586;2023-07-13T10:01:36;3.50;;;1.53;;
14316;SDS011;7242;50.858;6.586;2023-07-13T10:04:38;4.10;;;1.50;;
14316;SDS011;7242;50.858;6.586;2023-07-13T10:07:42;3.17;;;1.03;;
14316;SDS011;7242;50.858;6.586;2023-07-13T10:10:44;3.23;;;1.40;;
14316;SDS011;7242;50.858;6.586;2023-07-13T10:14:31;4.13;;;1.57;;
14316;SDS011;7242;50.858;6.586;2023-07-13T10:17:10;4.63;;;1.40;;
14316;SDS011;7242;50.858;6.586;2023-07-13T10:20:14;3.83;;;1.20;;
14316;SDS011;7242;50.858;6.586;2023-07-13T10:23:15;3.57;;;1.17;;
14316;SDS011;7242;50.858;6.586;2023-07-13T10:26:23;3.93;;;1.23;;
14316;SDS011;7242;50.858;6.586;2023-07-13T10:29:26;4.50;;;1.23;;
14316;SDS011;7242;50.858;6.586;2023-07-13T10:32:29;3.70;;;1.40;;
14316;SDS011;7242;50.858;6.586;2023-07-13T10:35:30;3.30;;;1.10;;
14316;SDS011;7242;50.858;6.586;2023-07-13T10:38:31;5.47;;;1.50;;
14316;SDS011;7242;50.858;6.586;2023-07-13T10:41:37;3.30;;;1.27;;
14316;SDS011;7242;50.858;6.586;2023-07-13T10:44:41;3.27;;;1.43;;
14316;SDS011;7242;50.858;6.586;2023-07-13T10:47:42;7.00;;;1.60;;
14316;SDS011;7242;50.858;6.586;2023-07-13T10:50:44;4.93;;;1.80;;
14316;SDS011;7242;50.858;6.586;2023-07-13T10:57:22;4.83;;;1.53;;
14316;SDS011;7242;50.858;6.586;2023-07-13T11:00:22;3.20;;;1.33;;
14316;SDS011;7242;50.858;6.586;2023-07-13T11:03:25;3.40;;;1.33;;
14316;SDS011;7242;50.858;6.586;2023-07-13T11:09:37;3.83;;;1.30;;
14316;SDS011;7242;50.858;6.586;2023-07-13T11:15:48;2.37;;;1.20;;
14316;SDS011;7242;50.858;6.586;2023-07-13T11:22:09;5.80;;;1.47;;
14316;SDS011;7242;50.858;6.586;2023-07-13T11:28:23;8.17;;;1.30;;
14316;SDS011;7242;50.858;6.586;2023-07-13T11:31:25;4.97;;;1.47;;
14316;SDS011;7242;50.858;6.586;2023-07-13T11:34:36;4.37;;;1.30;;
14316;SDS011;7242;50.858;6.586;2023-07-13T11:37:38;3.10;;;1.33;;
14316;SDS011;7242;50.858;6.586;2023-07-13T11:40:39;3.47;;;1.40;;
14316;SDS011;7242;50.858;6.586;2023-07-13T11:43:41;5.53;;;1.53;;
14316;SDS011;7242;50.858;6.586;2023-07-13T11:46:49;3.97;;;1.30;;
14316;SDS011;7242;50.858;6.586;2023-07-13T11:50:00;10.80;;;1.70;;
14316;SDS011;7242;50.858;6.586;2023-07-13T11:53:01;3.60;;;1.33;;
14316;SDS011;7242;50.858;6.586;2023-07-13T11:56:04;2.83;;;1.47;;
14316;SDS011;7242;50.858;6.586;2023-07-13T11:59:06;3.87;;;1.20;;
14316;SDS011;7242;50.858;6.586;2023-07-13T12:02:13;2.87;;;1.17;;
14316;SDS011;7242;50.858;6.586;2023-07-13T12:05:18;4.50;;;1.10;;
14316;SDS011;7242;50.858;6.586;2023-07-13T12:08:23;3.33;;;1.30;;
14316;SDS011;7242;50.858;6.586;2023-07-13T12:11:24;3.17;;;1.17;;
14316;SDS011;7242;50.858;6.586;2023-07-13T12:14:25;1.80;;;1.03;;
14316;SDS011;7242;50.858;6.586;2023-07-13T12:17:26;3.10;;;1.10;;
14316;SDS011;7242;50.858;6.586;2023-07-13T12:20:30;2.13;;;1.10;;
14316;SDS011;7242;50.858;6.586;2023-07-13T12:23:35;3.63;;;1.37;;
14316;SDS011;7242;50.858;6.586;2023-07-13T12:26:36;4.67;;;1.30;;
14316;SDS011;7242;50.858;6.586;2023-07-13T12:29:37;4.43;;;1.70;;
14316;SDS011;7242;50.858;6.586;2023-07-13T12:32:37;4.33;;;1.60;;
14316;SDS011;7242;50.858;6.586;2023-07-13T12:35:42;2.53;;;1.10;;
14316;SDS011;7242;50.858;6.586;2023-07-13T12:38:47;2.73;;;1.20;;
14316;SDS011;7242;50.858;6.586;2023-07-13T12:41:49;3.80;;;1.10;;
14316;SDS011;7242;50.858;6.586;2023-07-13T12:45:10;2.97;;;1.10;;
14316;SDS011;7242;50.858;6.586;2023-07-13T12:48:14;3.77;;;1.30;;
14316;SDS011;7242;50.858;6.586;2023-07-13T12:51:16;5.97;;;1.43;;
14316;SDS011;7242;50.858;6.586;2023-07-13T12:54:17;5.27;;;1.63;;
14316;SDS011;7242;50.858;6.586;2023-07-13T12:57:19;4.10;;;1.20;;
14316;SDS011;7242;50.858;6.586;2023-07-13T13:03:38;3.03;;;1.10;;
14316;SDS011;7242;50.858;6.586;2023-07-13T13:06:41;1.83;;;0.90;;
14316;SDS011;7242;50.858;6.586;2023-07-13T13:09:43;2.57;;;1.10;;
14316;SDS011;7242;50.858;6.586;2023-07-13T13:12:44;2.83;;;1.13;;
14316;SDS011;7242;50.858;6.586;2023-07-13T13:15:44;3.53;;;1.10;;
14316;SDS011;7242;50.858;6.586;2023-07-13T13:18:46;4.80;;;1.30;;
14316;SDS011;7242;50.858;6.586;2023-07-13T13:21:47;4.60;;;1.00;;
14316;SDS011;7242;50.858;6.586;2023-07-13T13:24:50;3.57;;;1.20;;
14316;SDS011;7242;50.858;6.586;2023-07-13T13:27:50;2.90;;;1.20;;
14316;SDS011;7242;50.858;6.586;2023-07-13T13:30:51;4.07;;;1.03;;
14316;SDS011;7242;50.858;6.586;2023-07-13T13:33:52;3.57;;;1.10;;
14316;SDS011;7242;50.858;6.586;2023-07-13T13:36:53;2.37;;;1.13;;
14316;SDS011;7242;50.858;6.586;2023-07-13T13:39:54;5.03;;;1.00;;
14316;SDS011;7242;50.858;6.586;2023-07-13T13:42:55;3.10;;;0.93;;
14316;SDS011;7242;50.858;6.586;2023-07-13T13:45:58;3.87;;;1.10;;
14316;SDS011;7242;50.858;6.586;2023-07-13T13:49:00;4.50;;;1.27;;
14316;SDS011;7242;50.858;6.586;2023-07-13T13:52:01;2.57;;;1.10;;
14316;SDS011;7242;50.858;6.586;2023-07-13T13:55:04;4.40;;;1.00;;
14316;SDS011;7242;50.858;6.586;2023-07-13T13:58:12;2.37;;;1.00;;
14316;SDS011;7242;50.858;6.586;2023-07-13T14:01:16;5.37;;;1.53;;
14316;SDS011;7242;50.858;6.586;2023-07-13T14:04:23;3.77;;;1.07;;
14316;SDS011;7242;50.858;6.586;2023-07-13T14:07:24;3.37;;;1.10;;
14316;SDS011;7242;50.858;6.586;2023-07-13T14:10:25;3.13;;;1.17;;
14316;SDS011;7242;50.858;6.586;2023-07-13T14:13:28;2.43;;;1.03;;
14316;SDS011;7242;50.858;6.586;2023-07-13T14:16:36;3.17;;;0.97;;
14316;SDS011;7242;50.858;6.586;2023-07-13T14:19:37;4.07;;;0.93;;
14316;SDS011;7242;50.858;6.586;2023-07-13T14:22:37;2.37;;;1.07;;
14316;SDS011;7242;50.858;6.586;2023-07-13T14:25:38;2.63;;;0.93;;
14316;SDS011;7242;50.858;6.586;2023-07-13T14:28:44;4.33;;;1.00;;
14316;SDS011;7242;50.858;6.586;2023-07-13T14:31:47;2.70;;;1.00;;
14316;SDS011;7242;50.858;6.586;2023-07-13T14:34:48;3.50;;;1.10;;
14316;SDS011;7242;50.858;6.586;2023-07-13T14:37:48;1.73;;;0.87;;
14316;SDS011;7242;50.858;6.586;2023-07-13T14:40:49;2.77;;;0.80;;
14316;SDS011;7242;50.858;6.586;2023-07-13T14:43:50;2.33;;;1.00;;
14316;SDS011;7242;50.858;6.586;2023-07-13T14:46:51;3.17;;;1.00;;
14316;SDS011;7242;50.858;6.586;2023-07-13T14:49:52;5.47;;;1.40;;
14316;SDS011;7242;50.858;6.586;2023-07-13T14:52:53;2.63;;;1.20;;
14316;SDS011;7242;50.858;6.586;2023-07-13T14:55:54;3.27;;;1.37;;
14316;SDS011;7242;50.858;6.586;2023-07-13T14:58:54;2.17;;;1.00;;
14316;SDS011;7242;50.858;6.586;2023-07-13T15:01:55;3.50;;;0.97;;
14316;SDS011;7242;50.858;6.586;2023-07-13T15:04:56;3.53;;;1.33;;
14316;SDS011;7242;50.858;6.586;2023-07-13T15:07:57;3.50;;;1.23;;
14316;SDS011;7242;50.858;6.586;2023-07-13T15:11:00;2.10;;;1.10;;
14316;SDS011;7242;50.858;6.586;2023-07-13T15:14:01;2.97;;;1.37;;
14316;SDS011;7242;50.858;6.586;2023-07-13T15:17:03;3.13;;;1.50;;
14316;SDS011;7242;50.858;6.586;2023-07-13T15:20:26;3.87;;;1.20;;
14316;SDS011;7242;50.858;6.586;2023-07-13T15:23:26;2.47;;;1.00;;
14316;SDS011;7242;50.858;6.586;2023-07-13T15:26:27;3.07;;;1.30;;
14316;SDS011;7242;50.858;6.586;2023-07-13T15:29:28;5.53;;;1.20;;
14316;SDS011;7242;50.858;6.586;2023-07-13T15:32:28;3.40;;;1.10;;
14316;SDS011;7242;50.858;6.586;2023-07-13T15:35:29;2.27;;;1.07;;
14316;SDS011;7242;50.858;6.586;2023-07-13T15:38:30;3.73;;;1.03;;
14316;SDS011;7242;50.858;6.586;2023-07-13T15:41:31;5.83;;;1.47;;
14316;SDS011;7242;50.858;6.586;2023-07-13T15:44:34;10.20;;;1.50;;
14316;SDS011;7242;50.858;6.586;2023-07-13T15:47:36;7.67;;;1.30;;
14316;SDS011;7242;50.858;6.586;2023-07-13T15:50:39;6.17;;;1.50;;
14316;SDS011;7242;50.858;6.586;2023-07-13T15:53:48;4.07;;;1.43;;
14316;SDS011;7242;50.858;6.586;2023-07-13T15:56:51;5.33;;;1.43;;
14316;SDS011;7242;50.858;6.586;2023-07-13T15:59:53;4.53;;;1.80;;
14316;SDS011;7242;50.858;6.586;2023-07-13T16:02:55;5.60;;;1.40;;
14316;SDS011;7242;50.858;6.586;2023-07-13T16:05:55;5.40;;;1.50;;
14316;SDS011;7242;50.858;6.586;2023-07-13T16:08:56;5.87;;;1.60;;
14316;SDS011;7242;50.858;6.586;2023-07-13T16:11:57;4.03;;;1.40;;
14316;SDS011;7242;50.858;6.586;2023-07-13T16:14:58;3.13;;;1.40;;
14316;SDS011;7242;50.858;6.586;2023-07-13T16:17:59;2.67;;;1.20;;
14316;SDS011;7242;50.858;6.586;2023-07-13T16:21:01;4.10;;;1.70;;
14316;SDS011;7242;50.858;6.586;2023-07-13T16:24:01;5.70;;;1.83;;
14316;SDS011;7242;50.858;6.586;2023-07-13T16:27:03;5.37;;;2.00;;
14316;SDS011;7242;50.858;6.586;2023-07-13T16:30:17;3.93;;;1.80;;
14316;SDS011;7242;50.858;6.586;2023-07-13T16:33:24;3.50;;;1.60;;
14316;SDS011;7242;50.858;6.586;2023-07-13T16:36:25;4.30;;;1.90;;
14316;SDS011;7242;50.858;6.586;2023-07-13T16:39:27;4.30;;;1.27;;
14316;SDS011;7242;50.858;6.586;2023-07-13T16:42:28;6.00;;;1.40;;
14316;SDS011;7242;50.858;6.586;2023-07-13T16:45:30;3.40;;;1.63;;
14316;SDS011;7242;50.858;6.586;2023-07-13T16:48:33;5.40;;;2.27;;
14316;SDS011;7242;50.858;6.586;2023-07-13T16:51:34;4.40;;;1.50;;
14316;SDS011;7242;50.858;6.586;2023-07-13T16:54:37;6.23;;;1.30;;
14316;SDS011;7242;50.858;6.586;2023-07-13T16:57:39;5.33;;;1.77;;
14316;SDS011;7242;50.858;6.586;2023-07-13T17:00:42;2.80;;;1.30;;
14316;SDS011;7242;50.858;6.586;2023-07-13T17:03:43;3.93;;;1.57;;
14316;SDS011;7242;50.858;6.586;2023-07-13T17:06:44;4.77;;;1.50;;
14316;SDS011;7242;50.858;6.586;2023-07-13T17:09:47;2.80;;;1.30;;
14316;SDS011;7242;50.858;6.586;2023-07-13T17:12:49;4.17;;;1.30;;
14316;SDS011;7242;50.858;6.586;2023-07-13T17:15:51;3.77;;;1.80;;
14316;SDS011;7242;50.858;6.586;2023-07-13T17:18:56;2.73;;;1.03;;
14316;SDS011;7242;50.858;6.586;2023-07-13T17:21:58;5.50;;;2.20;;
14316;SDS011;7242;50.858;6.586;2023-07-13T17:24:59;4.10;;;1.50;;
14316;SDS011;7242;50.858;6.586;2023-07-13T17:28:00;3.67;;;1.50;;
14316;SDS011;7242;50.858;6.586;2023-07-13T17:31:01;3.20;;;1.50;;
14316;SDS011;7242;50.858;6.586;2023-07-13T17:34:02;2.27;;;1.20;;
14316;SDS011;7242;50.858;6.586;2023-07-13T17:37:07;4.47;;;1.73;;
14316;SDS011;7242;50.858;6.586;2023-07-13T17:40:14;3.23;;;1.33;;
14316;SDS011;7242;50.858;6.586;2023-07-13T17:43:18;3.10;;;1.60;;
14316;SDS011;7242;50.858;6.586;2023-07-13T17:46:30;3.10;;;1.33;;
14316;SDS011;7242;50.858;6.586;2023-07-13T17:49:34;2.33;;;1.20;;
14316;SDS011;7242;50.858;6.586;2023-07-13T17:52:36;3.10;;;1.10;;
14316;SDS011;7242;50.858;6.586;2023-07-13T17:55:39;2.73;;;1.33;;
14316;SDS011;7242;50.858;6.586;2023-07-13T17:58:40;6.10;;;1.40;;
14316;SDS011;7242;50.858;6.586;2023-07-13T18:01:44;2.83;;;1.30;;
14316;SDS011;7242;50.858;6.586;2023-07-13T18:04:47;4.40;;;1.80;;
14316;SDS011;7242;50.858;6.586;2023-07-13T18:07:48;3.80;;;1.60;;
14316;SDS011;7242;50.858;6.586;2023-07-13T18:10:50;3.60;;;1.60;;
14316;SDS011;7242;50.858;6.586;2023-07-13T18:13:52;6.73;;;1.43;;
14316;SDS011;7242;50.858;6.586;2023-07-13T18:16:54;5.13;;;1.20;;
14316;SDS011;7242;50.858;6.586;2023-07-13T18:19:56;2.63;;;1.40;;
14316;SDS011;7242;50.858;6.586;2023-07-13T18:22:57;4.53;;;1.30;;
14316;SDS011;7242;50.858;6.586;2023-07-13T18:25:58;1.57;;;1.33;;
14316;SDS011;7242;50.858;6.586;2023-07-13T18:28:59;2.67;;;1.60;;
14316;SDS011;7242;50.858;6.586;2023-07-13T18:32:00;2.90;;;1.40;;
14316;SDS011;7242;50.858;6.586;2023-07-13T18:35:04;2.97;;;1.50;;
14316;SDS011;7242;50.858;6.586;2023-07-13T18:38:07;3.40;;;1.47;;
14316;SDS011;7242;50.858;6.586;2023-07-13T18:41:19;3.40;;;1.43;;
14316;SDS011;7242;50.858;6.586;2023-07-13T18:44:22;2.70;;;1.50;;
14316;SDS011;7242;50.858;6.586;2023-07-13T18:47:23;2.77;;;1.53;;
14316;SDS011;7242;50.858;6.586;2023-07-13T18:50:29;2.47;;;1.40;;
14316;SDS011;7242;50.858;6.586;2023-07-13T18:53:32;3.77;;;1.40;;
14316;SDS011;7242;50.858;6.586;2023-07-13T18:56:33;3.40;;;1.30;;
14316;SDS011;7242;50.858;6.586;2023-07-13T18:59:36;2.30;;;1.10;;
14316;SDS011;7242;50.858;6.586;2023-07-13T19:02:37;3.47;;;1.33;;